createdAt,value
2023-01-09T00:00:54.571Z,88.97
2023-01-09T00:06:01.020Z,89.10
2023-01-09T00:11:04.022Z,89.14
2023-01-09T00:16:07.973Z,89.30
2023-01-09T00:21:11.955Z,89.16
2023-01-09T00:26:17.971Z,89.41
2023-01-09T00:31:21.432Z,89.16
2023-01-09T00:36:24.195Z,89.48
2023-01-09T00:41:45.047Z,89.31
2023-01-09T00:46:55.969Z,89.20
2023-01-09T00:51:58.824Z,89.36
2023-01-09T00:57:01.913Z,89.48
2023-01-09T01:02:04.857Z,89.51
2023-01-09T01:07:26.390Z,89.28
2023-01-09T01:12:29.269Z,89.55
2023-01-09T01:17:35.426Z,89.63
2023-01-09T01:22:38.277Z,89.65
2023-01-09T01:27:42.834Z,89.61
2023-01-09T01:32:45.797Z,89.44
2023-01-09T01:37:50.133Z,89.62
2023-01-09T01:42:54.092Z,89.55
2023-01-09T01:48:04.880Z,89.51
2023-01-09T01:53:26.829Z,89.84
2023-01-09T01:58:29.911Z,89.75
2023-01-09T02:03:32.696Z,89.89
2023-01-09T02:08:35.528Z,89.75
2023-01-09T02:13:41.059Z,89.82
2023-01-09T02:18:52.269Z,89.71
2023-01-09T02:24:43.461Z,89.76
2023-01-09T02:30:30.944Z,89.90
2023-01-09T02:35:49.903Z,89.90
2023-01-09T02:41:35.612Z,89.81
2023-01-09T02:46:38.378Z,89.83
2023-01-09T02:51:53.732Z,89.78
2023-01-09T02:57:53.225Z,89.83
2023-01-09T03:03:03.773Z,89.78
2023-01-09T03:08:19.181Z,89.61
2023-01-09T03:13:24.534Z,89.59
2023-01-09T03:18:27.544Z,89.75
2023-01-09T03:23:54.453Z,89.47
2023-01-09T03:28:58.079Z,89.44
2023-01-09T03:34:00.947Z,89.81
2023-01-09T03:39:04.160Z,89.48
2023-01-09T03:44:06.933Z,89.92
2023-01-09T03:49:10.929Z,89.87
2023-01-09T03:54:13.715Z,89.75
2023-01-09T03:59:16.435Z,90.08
2023-01-09T04:04:19.520Z,90.04
2023-01-09T04:09:22.290Z,89.85
2023-01-09T04:14:25.041Z,90.11
2023-01-09T04:19:27.879Z,90.09
2023-01-09T04:24:32.408Z,90.01
2023-01-09T04:29:35.185Z,90.09
2023-01-09T04:34:38.447Z,90.12
2023-01-09T04:39:43.970Z,90.14
2023-01-09T04:44:46.976Z,90.12
2023-01-09T04:49:49.777Z,90.09
2023-01-09T04:54:52.607Z,90.37
2023-01-09T04:59:55.361Z,90.42
2023-01-09T05:04:58.117Z,90.23
2023-01-09T05:10:01.483Z,90.57
2023-01-09T05:15:06.005Z,90.63
2023-01-09T05:20:09.592Z,90.86
2023-01-09T05:25:12.399Z,91.01
2023-01-09T05:30:18.013Z,91.07
2023-01-09T05:35:21.344Z,90.80
2023-01-09T05:40:29.157Z,90.80
2023-01-09T05:45:35.351Z,91.08
2023-01-09T05:50:38.114Z,90.85
2023-01-09T05:55:40.946Z,90.86
2023-01-09T06:00:43.738Z,90.84
2023-01-09T06:05:46.686Z,90.83
2023-01-09T06:10:49.522Z,90.98
2023-01-09T06:15:52.419Z,90.47
2023-01-09T06:20:55.346Z,91.01
2023-01-09T06:25:58.169Z,90.76
2023-01-09T06:31:01.075Z,90.77
2023-01-09T06:36:04.351Z,90.40
2023-01-09T06:41:07.114Z,90.62
2023-01-09T06:46:09.918Z,90.74
2023-01-09T06:51:12.738Z,90.61
2023-01-09T06:56:15.428Z,90.67
2023-01-09T07:01:18.263Z,90.75
2023-01-09T07:06:21.045Z,90.51
2023-01-09T07:11:24.277Z,90.62
2023-01-09T07:16:27.042Z,90.25
2023-01-09T07:21:32.582Z,90.34
2023-01-09T07:26:35.591Z,90.44
2023-01-09T07:31:38.705Z,90.66
2023-01-09T07:36:41.586Z,90.47
2023-01-09T07:41:45.044Z,90.36
2023-01-09T07:46:47.827Z,90.45
2023-01-09T07:51:50.605Z,90.37
2023-01-09T07:56:53.357Z,90.28
2023-01-09T08:01:56.535Z,90.47
2023-01-09T08:06:59.340Z,90.65
2023-01-09T08:12:04.105Z,90.32
2023-01-09T08:17:06.816Z,90.29
2023-01-09T08:22:10.304Z,90.56
2023-01-09T08:27:13.156Z,90.41
2023-01-09T08:32:15.904Z,90.33
2023-01-09T08:37:18.685Z,90.18
2023-01-09T08:42:40.332Z,90.22
2023-01-09T08:47:44.310Z,90.39
2023-01-09T08:52:48.791Z,90.27
2023-01-09T08:57:52.781Z,90.32
2023-01-09T09:02:58.174Z,90.41
2023-01-09T09:08:03.624Z,90.16
2023-01-09T09:13:06.501Z,90.23
2023-01-09T09:18:09.506Z,89.90
2023-01-09T09:23:12.428Z,90.03
2023-01-09T09:28:15.221Z,89.85
2023-01-09T09:33:17.937Z,90.00
2023-01-09T09:38:21.176Z,89.83
2023-01-09T09:44:21.340Z,90.27
2023-01-09T09:49:29.025Z,89.84
2023-01-09T09:54:43.676Z,89.77
2023-01-09T09:59:48.226Z,89.49
2023-01-09T10:04:57.767Z,89.75
2023-01-09T10:10:02.214Z,89.49
2023-01-09T10:15:24.365Z,89.17
2023-01-09T10:20:49.961Z,89.11
2023-01-09T10:26:05.190Z,88.95
2023-01-09T10:31:20.530Z,88.93
2023-01-09T10:37:04.918Z,88.89
2023-01-09T10:42:17.787Z,89.26
2023-01-09T10:47:34.446Z,89.50
2023-01-09T10:52:38.369Z,89.35
2023-01-09T10:57:46.269Z,89.69
2023-01-09T11:02:49.514Z,89.91
2023-01-09T11:08:25.597Z,90.02
2023-01-09T11:13:31.995Z,90.11
2023-01-09T11:18:38.715Z,90.27
2023-01-09T11:23:41.776Z,90.34
2023-01-09T11:28:44.560Z,90.37
2023-01-09T11:33:48.298Z,90.40
2023-01-09T11:38:55.587Z,90.72
2023-01-09T11:43:58.696Z,90.64
2023-01-09T11:49:02.923Z,90.99
2023-01-09T11:54:21.517Z,90.94
2023-01-09T11:59:29.215Z,91.16
2023-01-09T12:04:48.407Z,91.29
2023-01-09T12:10:22.372Z,91.48
2023-01-09T12:15:57.027Z,91.70
2023-01-09T12:21:38.180Z,91.74
2023-01-09T12:27:02.913Z,92.08
2023-01-09T12:32:47.812Z,92.31
2023-01-09T12:38:23.169Z,92.30
2023-01-09T12:44:01.365Z,92.76
2023-01-09T12:49:17.691Z,92.95
2023-01-09T12:54:58.536Z,93.22
2023-01-09T13:00:43.586Z,93.28
2023-01-09T13:05:51.186Z,93.35
2023-01-09T13:10:59.913Z,93.61
2023-01-09T13:16:06.693Z,93.79
2023-01-09T13:21:09.750Z,93.89
2023-01-09T13:26:28.410Z,94.10
2023-01-09T13:31:44.620Z,94.00
2023-01-09T13:36:52.487Z,94.06
2023-01-09T13:42:24.914Z,94.18
2023-01-09T13:47:28.430Z,94.37
2023-01-09T13:52:37.970Z,94.25
2023-01-09T13:58:05.928Z,94.47
2023-01-09T14:03:16.975Z,94.59
2023-01-09T14:08:22.085Z,94.64
2023-01-09T14:13:30.917Z,94.98
2023-01-09T14:18:35.772Z,94.95
2023-01-09T14:24:06.457Z,95.03
2023-01-09T14:29:28.613Z,95.16
2023-01-09T14:34:32.264Z,95.36
2023-01-09T14:39:35.206Z,95.57
2023-01-09T14:44:47.356Z,95.48
2023-01-09T14:50:16.089Z,95.58
2023-01-09T14:55:53.522Z,95.58
2023-01-09T15:01:15.959Z,95.70
2023-01-09T15:06:20.920Z,95.63
2023-01-09T15:11:23.783Z,95.70
2023-01-09T15:16:26.725Z,95.78
2023-01-09T15:21:30.960Z,95.97
2023-01-09T15:26:33.808Z,96.00
2023-01-09T15:31:37.228Z,96.19
2023-01-09T15:36:40.112Z,96.01
2023-01-09T15:42:01.684Z,96.15
2023-01-09T15:47:08.577Z,96.19
2023-01-09T15:52:15.236Z,96.32
2023-01-09T15:57:27.142Z,96.27
2023-01-09T16:02:48.517Z,96.44
2023-01-09T16:07:51.593Z,96.53
2023-01-09T16:12:54.823Z,96.53
2023-01-09T16:18:13.621Z,96.37
2023-01-09T16:29:54.329Z,96.82
2023-01-09T17:03:53.648Z,96.50
2023-01-09T17:09:11.699Z,96.66
2023-01-09T17:33:05.964Z,96.97
2023-01-09T18:30:05.550Z,97.56
2023-01-09T18:35:09.153Z,97.59
2023-01-09T18:40:12.338Z,97.79
2023-01-09T18:45:15.215Z,97.80
2023-01-09T18:50:17.988Z,97.88
2023-01-09T18:55:21.996Z,98.11
2023-01-09T19:00:24.734Z,98.25
2023-01-09T19:05:27.541Z,97.82
2023-01-09T19:10:30.334Z,98.10
2023-01-09T19:15:34.764Z,98.14
2023-01-09T19:20:40.595Z,98.04
2023-01-09T19:25:43.345Z,98.40
2023-01-09T19:30:46.492Z,98.66
2023-01-09T19:35:49.413Z,98.64
2023-01-09T19:40:52.243Z,99.02
2023-01-09T19:45:55.451Z,98.88
2023-01-09T19:51:03.499Z,99.08
2023-01-09T19:56:17.264Z,99.17
2023-01-09T20:01:25.515Z,99.41
2023-01-09T20:06:28.354Z,99.63
2023-01-09T20:11:32.402Z,99.71
2023-01-09T20:16:35.192Z,99.59
2023-01-09T20:21:38.263Z,99.87
2023-01-09T20:26:44.815Z,99.48
2023-01-09T20:31:47.795Z,99.66
2023-01-09T20:36:50.698Z,99.57
2023-01-09T20:41:53.548Z,99.54
2023-01-09T20:46:56.349Z,99.79
2023-01-09T20:51:59.113Z,99.40
2023-01-09T20:57:01.854Z,99.50
2023-01-09T21:02:04.586Z,99.38
2023-01-09T21:07:09.262Z,99.28
2023-01-09T21:12:28.701Z,99.24
2023-01-09T21:17:36.014Z,99.18
2023-01-09T21:22:39.592Z,99.05
2023-01-09T21:27:47.331Z,98.93
2023-01-09T21:32:50.124Z,98.66
2023-01-09T21:37:52.933Z,98.30
2023-01-09T21:43:14.469Z,98.47
2023-01-09T21:48:17.435Z,98.18
2023-01-09T21:53:20.143Z,98.10
2023-01-09T21:58:22.948Z,97.95
2023-01-09T22:03:25.738Z,97.88
2023-01-09T22:08:28.567Z,97.61
2023-01-09T22:13:32.710Z,97.10
2023-01-09T22:18:36.057Z,97.29
2023-01-09T22:23:38.796Z,97.44
2023-01-09T22:28:42.109Z,97.51
2023-01-09T22:33:52.470Z,97.67
2023-01-09T22:38:56.926Z,97.30
2023-01-09T22:43:59.749Z,97.37
2023-01-09T22:49:03.232Z,97.58
2023-01-09T22:54:06.260Z,97.50
2023-01-09T22:59:09.537Z,97.44
2023-01-09T23:04:16.652Z,97.28
2023-01-09T23:09:19.539Z,97.23
2023-01-09T23:14:22.274Z,97.36
2023-01-09T23:19:25.175Z,97.05
2023-01-09T23:24:28.432Z,97.06
2023-01-09T23:29:31.339Z,96.99
2023-01-09T23:34:34.196Z,97.02
2023-01-09T23:39:36.953Z,96.85
2023-01-09T23:44:39.823Z,97.02
2023-01-09T23:49:43.210Z,97.09
2023-01-09T23:54:46.010Z,97.24
2023-01-09T23:59:49.457Z,97.11
